sensor_id;sensor_type;location;lat;lon;timestamp;P1;durP1;ratioP1;P2;durP2;ratioP2
69890;SDS011;57170;43.964;21.262;2023-02-28T00:00:03;66.88;;;42.25;;
69890;SDS011;57170;43.964;21.262;2023-02-28T00:02:41;62.33;;;38.85;;
69890;SDS011;57170;43.964;21.262;2023-02-28T00:05:08;66.22;;;38.58;;
69890;SDS011;57170;43.964;21.262;2023-02-28T00:07:34;70.70;;;43.15;;
69890;SDS011;57170;43.964;21.262;2023-02-28T00:10:01;69.50;;;45.53;;
69890;SDS011;57170;43.964;21.262;2023-02-28T00:12:27;73.43;;;45.20;;
69890;SDS011;57170;43.964;21.262;2023-02-28T00:14:53;65.70;;;39.40;;
69890;SDS011;57170;43.964;21.262;2023-02-28T00:17:19;59.72;;;37.95;;
69890;SDS011;57170;43.964;21.262;2023-02-28T00:19:48;81.38;;;52.35;;
69890;SDS011;57170;43.964;21.262;2023-02-28T00:22:15;85.70;;;57.97;;
69890;SDS011;57170;43.964;21.262;2023-02-28T00:24:41;75.53;;;50.75;;
69890;SDS011;57170;43.964;21.262;2023-02-28T00:27:07;76.55;;;50.15;;
69890;SDS011;57170;43.964;21.262;2023-02-28T00:29:33;80.75;;;50.28;;
69890;SDS011;57170;43.964;21.262;2023-02-28T00:31:59;77.60;;;44.30;;
69890;SDS011;57170;43.964;21.262;2023-02-28T00:34:26;67.30;;;39.45;;
69890;SDS011;57170;43.964;21.262;2023-02-28T00:36:52;63.03;;;38.90;;
69890;SDS011;57170;43.964;21.262;2023-02-28T00:39:18;73.32;;;40.53;;
69890;SDS011;57170;43.964;21.262;2023-02-28T00:41:44;62.42;;;37.97;;
69890;SDS011;57170;43.964;21.262;2023-02-28T00:44:10;63.63;;;39.25;;
69890;SDS011;57170;43.964;21.262;2023-02-28T00:46:36;61.20;;;37.97;;
69890;SDS011;57170;43.964;21.262;2023-02-28T00:49:02;68.28;;;41.78;;
69890;SDS011;57170;43.964;21.262;2023-02-28T00:51:28;80.90;;;46.28;;
69890;SDS011;57170;43.964;21.262;2023-02-28T00:53:54;63.90;;;40.17;;
69890;SDS011;57170;43.964;21.262;2023-02-28T00:56:20;55.15;;;38.70;;
69890;SDS011;57170;43.964;21.262;2023-02-28T00:58:46;62.38;;;37.17;;
69890;SDS011;57170;43.964;21.262;2023-02-28T01:01:12;58.88;;;39.38;;
69890;SDS011;57170;43.964;21.262;2023-02-28T01:03:38;71.00;;;39.90;;
69890;SDS011;57170;43.964;21.262;2023-02-28T01:06:05;60.08;;;39.08;;
69890;SDS011;57170;43.964;21.262;2023-02-28T01:08:31;66.78;;;39.85;;
69890;SDS011;57170;43.964;21.262;2023-02-28T01:10:57;65.57;;;40.70;;
69890;SDS011;57170;43.964;21.262;2023-02-28T01:13:23;75.28;;;42.17;;
69890;SDS011;57170;43.964;21.262;2023-02-28T01:15:51;67.55;;;40.50;;
69890;SDS011;57170;43.964;21.262;2023-02-28T01:18:18;66.47;;;43.35;;
69890;SDS011;57170;43.964;21.262;2023-02-28T01:20:44;64.47;;;39.92;;
69890;SDS011;57170;43.964;21.262;2023-02-28T01:23:11;66.07;;;40.58;;
69890;SDS011;57170;43.964;21.262;2023-02-28T01:25:37;67.55;;;43.33;;
69890;SDS011;57170;43.964;21.262;2023-02-28T01:28:04;65.97;;;40.88;;
69890;SDS011;57170;43.964;21.262;2023-02-28T01:30:30;69.50;;;44.35;;
69890;SDS011;57170;43.964;21.262;2023-02-28T01:32:57;66.35;;;42.58;;
69890;SDS011;57170;43.964;21.262;2023-02-28T01:35:23;63.70;;;40.22;;
69890;SDS011;57170;43.964;21.262;2023-02-28T01:37:49;68.80;;;41.35;;
69890;SDS011;57170;43.964;21.262;2023-02-28T01:40:15;67.07;;;43.83;;
69890;SDS011;57170;43.964;21.262;2023-02-28T01:42:41;65.05;;;40.80;;
69890;SDS011;57170;43.964;21.262;2023-02-28T01:47:38;67.05;;;42.15;;
69890;SDS011;57170;43.964;21.262;2023-02-28T01:50:10;65.32;;;42.67;;
69890;SDS011;57170;43.964;21.262;2023-02-28T01:52:37;70.28;;;44.58;;
69890;SDS011;57170;43.964;21.262;2023-02-28T01:55:04;72.38;;;42.47;;
69890;SDS011;57170;43.964;21.262;2023-02-28T01:57:33;69.10;;;43.17;;
69890;SDS011;57170;43.964;21.262;2023-02-28T02:00:24;67.13;;;42.65;;
69890;SDS011;57170;43.964;21.262;2023-02-28T02:02:50;69.22;;;42.42;;
69890;SDS011;57170;43.964;21.262;2023-02-28T02:05:18;71.28;;;45.17;;
69890;SDS011;57170;43.964;21.262;2023-02-28T02:07:45;59.88;;;38.15;;
69890;SDS011;57170;43.964;21.262;2023-02-28T02:10:13;67.75;;;38.88;;
69890;SDS011;57170;43.964;21.262;2023-02-28T02:17:57;68.63;;;41.20;;
69890;SDS011;57170;43.964;21.262;2023-02-28T02:35:56;69.43;;;41.63;;
69890;SDS011;57170;43.964;21.262;2023-02-28T02:38:31;65.88;;;40.58;;
69890;SDS011;57170;43.964;21.262;2023-02-28T02:41:10;63.50;;;40.28;;
69890;SDS011;57170;43.964;21.262;2023-02-28T02:44:02;64.43;;;41.05;;
69890;SDS011;57170;43.964;21.262;2023-02-28T02:46:34;67.88;;;41.58;;
69890;SDS011;57170;43.964;21.262;2023-02-28T02:49:01;67.88;;;42.15;;
69890;SDS011;57170;43.964;21.262;2023-02-28T02:51:29;65.60;;;41.53;;
69890;SDS011;57170;43.964;21.262;2023-02-28T02:54:02;66.25;;;39.92;;
69890;SDS011;57170;43.964;21.262;2023-02-28T02:56:29;64.28;;;40.72;;
69890;SDS011;57170;43.964;21.262;2023-02-28T02:58:59;66.25;;;40.00;;
69890;SDS011;57170;43.964;21.262;2023-02-28T03:01:26;66.25;;;41.35;;
69890;SDS011;57170;43.964;21.262;2023-02-28T03:03:55;63.50;;;40.78;;
69890;SDS011;57170;43.964;21.262;2023-02-28T03:06:22;67.85;;;41.05;;
69890;SDS011;57170;43.964;21.262;2023-02-28T03:08:48;68.45;;;41.70;;
69890;SDS011;57170;43.964;21.262;2023-02-28T03:11:14;68.72;;;42.30;;
69890;SDS011;57170;43.964;21.262;2023-02-28T03:21:46;57.38;;;39.90;;
69890;SDS011;57170;43.964;21.262;2023-02-28T03:24:18;66.03;;;39.85;;
69890;SDS011;57170;43.964;21.262;2023-02-28T03:26:47;76.43;;;44.20;;
69890;SDS011;57170;43.964;21.262;2023-02-28T03:29:57;75.47;;;46.70;;
69890;SDS011;57170;43.964;21.262;2023-02-28T03:32:05;77.60;;;46.22;;
69890;SDS011;57170;43.964;21.262;2023-02-28T03:34:39;74.40;;;45.42;;
69890;SDS011;57170;43.964;21.262;2023-02-28T03:37:12;83.18;;;51.15;;
69890;SDS011;57170;43.964;21.262;2023-02-28T03:39:42;76.57;;;45.10;;
69890;SDS011;57170;43.964;21.262;2023-02-28T03:42:18;89.53;;;52.03;;
69890;SDS011;57170;43.964;21.262;2023-02-28T03:44:48;77.00;;;48.92;;
69890;SDS011;57170;43.964;21.262;2023-02-28T03:47:23;83.45;;;51.47;;
69890;SDS011;57170;43.964;21.262;2023-02-28T03:50:10;76.57;;;46.80;;
69890;SDS011;57170;43.964;21.262;2023-02-28T03:52:42;73.13;;;44.58;;
69890;SDS011;57170;43.964;21.262;2023-02-28T03:55:11;64.95;;;43.63;;
69890;SDS011;57170;43.964;21.262;2023-02-28T03:57:54;73.00;;;46.42;;
69890;SDS011;57170;43.964;21.262;2023-02-28T04:00:28;66.97;;;41.88;;
69890;SDS011;57170;43.964;21.262;2023-02-28T04:02:55;70.17;;;48.90;;
69890;SDS011;57170;43.964;21.262;2023-02-28T04:05:21;67.45;;;42.20;;
69890;SDS011;57170;43.964;21.262;2023-02-28T04:07:48;71.13;;;44.85;;
69890;SDS011;57170;43.964;21.262;2023-02-28T04:10:15;63.08;;;41.80;;
69890;SDS011;57170;43.964;21.262;2023-02-28T04:12:41;65.53;;;42.58;;
69890;SDS011;57170;43.964;21.262;2023-02-28T04:15:08;69.93;;;43.30;;
69890;SDS011;57170;43.964;21.262;2023-02-28T04:17:35;75.15;;;44.97;;
69890;SDS011;57170;43.964;21.262;2023-02-28T04:20:01;74.32;;;44.33;;
69890;SDS011;57170;43.964;21.262;2023-02-28T04:22:28;68.30;;;41.38;;
69890;SDS011;57170;43.964;21.262;2023-02-28T04:24:54;68.47;;;40.72;;
69890;SDS011;57170;43.964;21.262;2023-02-28T04:27:20;64.18;;;41.72;;
69890;SDS011;57170;43.964;21.262;2023-02-28T04:29:47;71.43;;;42.00;;
69890;SDS011;57170;43.964;21.262;2023-02-28T04:32:13;71.45;;;43.83;;
69890;SDS011;57170;43.964;21.262;2023-02-28T04:34:39;71.80;;;40.05;;
69890;SDS011;57170;43.964;21.262;2023-02-28T04:37:05;76.20;;;43.45;;
69890;SDS011;57170;43.964;21.262;2023-02-28T04:39:34;72.13;;;44.28;;
69890;SDS011;57170;43.964;21.262;2023-02-28T04:42:00;72.30;;;45.22;;
69890;SDS011;57170;43.964;21.262;2023-02-28T04:44:26;69.88;;;42.42;;
69890;SDS011;57170;43.964;21.262;2023-02-28T04:46:52;69.07;;;43.33;;
69890;SDS011;57170;43.964;21.262;2023-02-28T04:49:18;65.40;;;44.28;;
69890;SDS011;57170;43.964;21.262;2023-02-28T04:51:44;72.25;;;44.80;;
69890;SDS011;57170;43.964;21.262;2023-02-28T04:54:10;63.22;;;40.60;;
69890;SDS011;57170;43.964;21.262;2023-02-28T04:56:36;66.63;;;43.22;;
69890;SDS011;57170;43.964;21.262;2023-02-28T04:59:02;65.65;;;43.10;;
69890;SDS011;57170;43.964;21.262;2023-02-28T05:01:30;70.05;;;43.22;;
69890;SDS011;57170;43.964;21.262;2023-02-28T05:03:57;77.50;;;46.15;;
69890;SDS011;57170;43.964;21.262;2023-02-28T05:06:25;65.72;;;39.35;;
69890;SDS011;57170;43.964;21.262;2023-02-28T05:08:51;63.55;;;39.03;;
69890;SDS011;57170;43.964;21.262;2023-02-28T05:13:44;64.07;;;38.75;;
69890;SDS011;57170;43.964;21.262;2023-02-28T05:16:10;60.30;;;37.72;;
69890;SDS011;57170;43.964;21.262;2023-02-28T05:18:36;56.00;;;37.30;;
69890;SDS011;57170;43.964;21.262;2023-02-28T05:21:02;59.45;;;37.67;;
69890;SDS011;57170;43.964;21.262;2023-02-28T05:23:28;53.75;;;34.67;;
69890;SDS011;57170;43.964;21.262;2023-02-28T05:25:55;58.15;;;35.20;;
69890;SDS011;57170;43.964;21.262;2023-02-28T05:28:21;55.38;;;33.85;;
69890;SDS011;57170;43.964;21.262;2023-02-28T05:30:47;56.65;;;37.40;;
69890;SDS011;57170;43.964;21.262;2023-02-28T05:33:14;52.85;;;34.38;;
69890;SDS011;57170;43.964;21.262;2023-02-28T05:35:40;60.13;;;38.65;;
69890;SDS011;57170;43.964;21.262;2023-02-28T05:38:10;69.20;;;41.13;;
69890;SDS011;57170;43.964;21.262;2023-02-28T05:40:37;65.65;;;42.03;;
69890;SDS011;57170;43.964;21.262;2023-02-28T05:43:04;65.80;;;43.67;;
69890;SDS011;57170;43.964;21.262;2023-02-28T05:45:30;60.50;;;39.42;;
69890;SDS011;57170;43.964;21.262;2023-02-28T05:47:56;62.83;;;38.88;;
69890;SDS011;57170;43.964;21.262;2023-02-28T05:50:22;61.78;;;38.88;;
69890;SDS011;57170;43.964;21.262;2023-02-28T05:52:51;62.58;;;40.53;;
69890;SDS011;57170;43.964;21.262;2023-02-28T05:55:17;57.42;;;38.58;;
69890;SDS011;57170;43.964;21.262;2023-02-28T05:57:43;55.47;;;35.85;;
69890;SDS011;57170;43.964;21.262;2023-02-28T06:00:09;59.25;;;37.38;;
69890;SDS011;57170;43.964;21.262;2023-02-28T06:02:36;64.63;;;40.10;;
69890;SDS011;57170;43.964;21.262;2023-02-28T06:05:04;67.78;;;39.58;;
69890;SDS011;57170;43.964;21.262;2023-02-28T06:07:30;50.33;;;34.25;;
69890;SDS011;57170;43.964;21.262;2023-02-28T06:09:56;127.40;;;70.32;;
69890;SDS011;57170;43.964;21.262;2023-02-28T06:12:22;108.75;;;62.28;;
69890;SDS011;57170;43.964;21.262;2023-02-28T06:14:48;77.47;;;47.45;;
69890;SDS011;57170;43.964;21.262;2023-02-28T06:17:14;58.58;;;38.22;;
69890;SDS011;57170;43.964;21.262;2023-02-28T06:19:40;63.75;;;40.90;;
69890;SDS011;57170;43.964;21.262;2023-02-28T06:22:06;73.70;;;47.15;;
69890;SDS011;57170;43.964;21.262;2023-02-28T06:24:32;103.38;;;63.80;;
69890;SDS011;57170;43.964;21.262;2023-02-28T06:26:58;66.32;;;41.67;;
69890;SDS011;57170;43.964;21.262;2023-02-28T06:29:30;58.53;;;34.55;;
69890;SDS011;57170;43.964;21.262;2023-02-28T06:31:56;58.33;;;39.22;;
69890;SDS011;57170;43.964;21.262;2023-02-28T06:34:22;78.75;;;46.58;;
69890;SDS011;57170;43.964;21.262;2023-02-28T06:36:49;63.70;;;39.78;;
69890;SDS011;57170;43.964;21.262;2023-02-28T06:39:15;59.10;;;36.65;;
69890;SDS011;57170;43.964;21.262;2023-02-28T06:41:42;62.53;;;42.67;;
69890;SDS011;57170;43.964;21.262;2023-02-28T06:44:17;87.70;;;54.60;;
69890;SDS011;57170;43.964;21.262;2023-02-28T06:46:44;58.05;;;34.63;;
69890;SDS011;57170;43.964;21.262;2023-02-28T06:49:10;53.53;;;35.78;;
69890;SDS011;57170;43.964;21.262;2023-02-28T06:51:37;52.08;;;36.83;;
69890;SDS011;57170;43.964;21.262;2023-02-28T06:54:03;56.38;;;38.10;;
69890;SDS011;57170;43.964;21.262;2023-02-28T06:56:30;66.18;;;43.10;;
69890;SDS011;57170;43.964;21.262;2023-02-28T06:58:56;50.08;;;31.10;;
69890;SDS011;57170;43.964;21.262;2023-02-28T07:01:22;60.88;;;41.00;;
69890;SDS011;57170;43.964;21.262;2023-02-28T07:03:49;74.95;;;47.75;;
69890;SDS011;57170;43.964;21.262;2023-02-28T07:06:20;71.10;;;39.50;;
69890;SDS011;57170;43.964;21.262;2023-02-28T07:08:50;60.42;;;39.63;;
69890;SDS011;57170;43.964;21.262;2023-02-28T07:11:21;66.45;;;43.45;;
69890;SDS011;57170;43.964;21.262;2023-02-28T07:13:48;60.70;;;37.83;;
69890;SDS011;57170;43.964;21.262;2023-02-28T07:16:14;74.63;;;45.13;;
69890;SDS011;57170;43.964;21.262;2023-02-28T07:18:40;60.50;;;38.58;;
69890;SDS011;57170;43.964;21.262;2023-02-28T07:21:07;62.30;;;36.90;;
69890;SDS011;57170;43.964;21.262;2023-02-28T07:23:33;69.65;;;42.33;;
69890;SDS011;57170;43.964;21.262;2023-02-28T07:25:59;85.97;;;52.95;;
69890;SDS011;57170;43.964;21.262;2023-02-28T07:28:25;78.63;;;50.90;;
69890;SDS011;57170;43.964;21.262;2023-02-28T07:30:51;76.10;;;46.53;;
69890;SDS011;57170;43.964;21.262;2023-02-28T07:33:18;65.40;;;41.83;;
69890;SDS011;57170;43.964;21.262;2023-02-28T07:35:44;72.82;;;46.00;;
69890;SDS011;57170;43.964;21.262;2023-02-28T07:38:10;69.30;;;41.13;;
69890;SDS011;57170;43.964;21.262;2023-02-28T07:40:38;73.63;;;47.10;;
69890;SDS011;57170;43.964;21.262;2023-02-28T07:43:04;83.28;;;51.78;;
69890;SDS011;57170;43.964;21.262;2023-02-28T07:45:30;66.68;;;42.70;;
69890;SDS011;57170;43.964;21.262;2023-02-28T07:47:59;77.22;;;43.20;;
69890;SDS011;57170;43.964;21.262;2023-02-28T07:50:25;65.53;;;42.25;;
69890;SDS011;57170;43.964;21.262;2023-02-28T07:52:55;68.20;;;44.45;;
69890;SDS011;57170;43.964;21.262;2023-02-28T07:55:21;76.18;;;47.40;;
69890;SDS011;57170;43.964;21.262;2023-02-28T07:57:47;60.85;;;40.42;;
69890;SDS011;57170;43.964;21.262;2023-02-28T08:00:13;69.60;;;44.78;;
69890;SDS011;57170;43.964;21.262;2023-02-28T08:02:39;71.82;;;46.28;;
69890;SDS011;57170;43.964;21.262;2023-02-28T08:05:06;71.30;;;41.63;;
69890;SDS011;57170;43.964;21.262;2023-02-28T08:07:32;80.15;;;46.33;;
69890;SDS011;57170;43.964;21.262;2023-02-28T08:09:58;75.72;;;46.92;;
69890;SDS011;57170;43.964;21.262;2023-02-28T08:12:25;69.43;;;45.63;;
69890;SDS011;57170;43.964;21.262;2023-02-28T08:14:51;77.07;;;48.10;;
69890;SDS011;57170;43.964;21.262;2023-02-28T08:17:17;101.25;;;59.35;;
69890;SDS011;57170;43.964;21.262;2023-02-28T08:19:46;83.15;;;47.95;;
69890;SDS011;57170;43.964;21.262;2023-02-28T08:22:12;79.55;;;46.17;;
69890;SDS011;57170;43.964;21.262;2023-02-28T08:24:38;72.25;;;44.85;;
69890;SDS011;57170;43.964;21.262;2023-02-28T08:27:06;74.22;;;44.92;;
69890;SDS011;57170;43.964;21.262;2023-02-28T08:29:32;79.30;;;48.15;;
69890;SDS011;57170;43.964;21.262;2023-02-28T08:31:58;107.13;;;63.50;;
69890;SDS011;57170;43.964;21.262;2023-02-28T08:34:24;83.22;;;49.55;;
69890;SDS011;57170;43.964;21.262;2023-02-28T08:36:50;73.70;;;49.33;;
69890;SDS011;57170;43.964;21.262;2023-02-28T08:39:18;119.20;;;72.35;;
69890;SDS011;57170;43.964;21.262;2023-02-28T08:41:45;88.80;;;55.45;;
69890;SDS011;57170;43.964;21.262;2023-02-28T08:44:11;93.47;;;56.10;;
69890;SDS011;57170;43.964;21.262;2023-02-28T08:46:37;76.13;;;47.20;;
69890;SDS011;57170;43.964;21.262;2023-02-28T08:49:04;85.40;;;52.65;;
69890;SDS011;57170;43.964;21.262;2023-02-28T08:51:30;80.05;;;46.65;;
69890;SDS011;57170;43.964;21.262;2023-02-28T08:53:58;87.18;;;50.63;;
69890;SDS011;57170;43.964;21.262;2023-02-28T08:56:25;101.18;;;58.72;;
69890;SDS011;57170;43.964;21.262;2023-02-28T08:58:51;73.65;;;44.03;;
69890;SDS011;57170;43.964;21.262;2023-02-28T09:01:21;91.20;;;53.00;;
69890;SDS011;57170;43.964;21.262;2023-02-28T09:03:48;86.35;;;49.85;;
69890;SDS011;57170;43.964;21.262;2023-02-28T09:06:15;98.25;;;58.47;;
69890;SDS011;57170;43.964;21.262;2023-02-28T09:08:41;91.90;;;51.95;;
69890;SDS011;57170;43.964;21.262;2023-02-28T09:11:08;78.10;;;45.50;;
69890;SDS011;57170;43.964;21.262;2023-02-28T09:13:34;77.95;;;45.00;;
69890;SDS011;57170;43.964;21.262;2023-02-28T09:16:00;104.28;;;65.85;;
69890;SDS011;57170;43.964;21.262;2023-02-28T09:18:27;75.18;;;44.65;;
69890;SDS011;57170;43.964;21.262;2023-02-28T09:20:53;78.38;;;44.72;;
69890;SDS011;57170;43.964;21.262;2023-02-28T09:23:19;81.68;;;47.25;;
69890;SDS011;57170;43.964;21.262;2023-02-28T09:25:46;81.55;;;48.45;;
69890;SDS011;57170;43.964;21.262;2023-02-28T09:28:13;90.90;;;53.65;;
69890;SDS011;57170;43.964;21.262;2023-02-28T09:30:42;76.15;;;46.55;;
69890;SDS011;57170;43.964;21.262;2023-02-28T09:33:09;84.10;;;48.30;;
69890;SDS011;57170;43.964;21.262;2023-02-28T09:35:35;80.22;;;48.72;;
69890;SDS011;57170;43.964;21.262;2023-02-28T09:38:02;78.78;;;44.60;;
69890;SDS011;57170;43.964;21.262;2023-02-28T09:40:28;74.10;;;43.65;;
69890;SDS011;57170;43.964;21.262;2023-02-28T09:42:55;71.18;;;45.50;;
69890;SDS011;57170;43.964;21.262;2023-02-28T09:47:56;77.97;;;47.00;;
69890;SDS011;57170;43.964;21.262;2023-02-28T09:50:33;72.03;;;39.67;;
69890;SDS011;57170;43.964;21.262;2023-02-28T09:53:06;58.78;;;33.70;;
69890;SDS011;57170;43.964;21.262;2023-02-28T09:55:44;62.58;;;36.50;;
69890;SDS011;57170;43.964;21.262;2023-02-28T09:58:15;71.25;;;39.55;;
69890;SDS011;57170;43.964;21.262;2023-02-28T10:00:44;72.00;;;39.83;;
69890;SDS011;57170;43.964;21.262;2023-02-28T10:03:25;68.28;;;38.03;;
69890;SDS011;57170;43.964;21.262;2023-02-28T10:06:00;62.03;;;36.28;;
69890;SDS011;57170;43.964;21.262;2023-02-28T10:08:30;59.58;;;36.15;;
69890;SDS011;57170;43.964;21.262;2023-02-28T10:10:58;65.78;;;37.65;;
69890;SDS011;57170;43.964;21.262;2023-02-28T10:13:27;62.13;;;37.97;;
69890;SDS011;57170;43.964;21.262;2023-02-28T10:16:01;53.22;;;33.85;;
69890;SDS011;57170;43.964;21.262;2023-02-28T10:18:41;61.40;;;39.47;;
69890;SDS011;57170;43.964;21.262;2023-02-28T10:21:12;66.22;;;37.75;;
69890;SDS011;57170;43.964;21.262;2023-02-28T10:23:40;71.07;;;43.80;;
69890;SDS011;57170;43.964;21.262;2023-02-28T10:26:12;74.55;;;42.92;;
69890;SDS011;57170;43.964;21.262;2023-02-28T10:28:38;73.47;;;42.58;;
69890;SDS011;57170;43.964;21.262;2023-02-28T10:31:05;79.20;;;45.22;;
69890;SDS011;57170;43.964;21.262;2023-02-28T10:33:34;73.82;;;40.60;;
69890;SDS011;57170;43.964;21.262;2023-02-28T10:36:01;72.22;;;39.13;;
69890;SDS011;57170;43.964;21.262;2023-02-28T10:38:31;64.80;;;35.47;;
69890;SDS011;57170;43.964;21.262;2023-02-28T10:41:11;73.60;;;37.58;;
69890;SDS011;57170;43.964;21.262;2023-02-28T10:43:38;71.40;;;41.30;;
69890;SDS011;57170;43.964;21.262;2023-02-28T10:51:04;76.25;;;44.50;;
69890;SDS011;57170;43.964;21.262;2023-02-28T10:53:35;67.32;;;42.22;;
69890;SDS011;57170;43.964;21.262;2023-02-28T10:56:06;76.35;;;43.20;;
69890;SDS011;57170;43.964;21.262;2023-02-28T11:03:55;81.97;;;48.03;;
69890;SDS011;57170;43.964;21.262;2023-02-28T11:06:23;69.57;;;42.20;;
69890;SDS011;57170;43.964;21.262;2023-02-28T11:11:17;82.93;;;49.22;;
69890;SDS011;57170;43.964;21.262;2023-02-28T11:13:44;74.47;;;43.03;;
69890;SDS011;57170;43.964;21.262;2023-02-28T11:16:12;79.22;;;46.63;;
69890;SDS011;57170;43.964;21.262;2023-02-28T11:18:40;76.90;;;43.42;;
69890;SDS011;57170;43.964;21.262;2023-02-28T11:21:08;81.38;;;48.22;;
69890;SDS011;57170;43.964;21.262;2023-02-28T11:23:35;70.57;;;43.33;;
69890;SDS011;57170;43.964;21.262;2023-02-28T11:26:03;81.38;;;49.08;;
69890;SDS011;57170;43.964;21.262;2023-02-28T11:28:31;76.80;;;45.58;;
69890;SDS011;57170;43.964;21.262;2023-02-28T11:33:31;97.53;;;56.28;;
69890;SDS011;57170;43.964;21.262;2023-02-28T11:36:02;112.22;;;62.78;;
69890;SDS011;57170;43.964;21.262;2023-02-28T11:38:28;91.28;;;54.00;;
69890;SDS011;57170;43.964;21.262;2023-02-28T11:43:25;121.22;;;74.13;;
69890;SDS011;57170;43.964;21.262;2023-02-28T11:46:03;144.73;;;80.32;;
69890;SDS011;57170;43.964;21.262;2023-02-28T11:59:48;92.35;;;52.20;;
69890;SDS011;57170;43.964;21.262;2023-02-28T12:04:25;83.13;;;50.38;;
69890;SDS011;57170;43.964;21.262;2023-02-28T12:07:11;76.78;;;45.95;;
69890;SDS011;57170;43.964;21.262;2023-02-28T12:10:00;87.80;;;54.72;;
69890;SDS011;57170;43.964;21.262;2023-02-28T12:20:30;73.88;;;47.17;;
69890;SDS011;57170;43.964;21.262;2023-02-28T12:28:30;85.70;;;50.85;;
69890;SDS011;57170;43.964;21.262;2023-02-28T12:31:02;82.97;;;47.00;;
69890;SDS011;57170;43.964;21.262;2023-02-28T12:33:34;72.00;;;41.03;;
69890;SDS011;57170;43.964;21.262;2023-02-28T12:36:02;75.72;;;44.60;;
69890;SDS011;57170;43.964;21.262;2023-02-28T12:41:00;85.97;;;48.65;;
69890;SDS011;57170;43.964;21.262;2023-02-28T12:43:33;79.93;;;47.17;;
69890;SDS011;57170;43.964;21.262;2023-02-28T12:46:01;74.25;;;45.70;;
69890;SDS011;57170;43.964;21.262;2023-02-28T12:48:31;77.43;;;44.55;;
69890;SDS011;57170;43.964;21.262;2023-02-28T12:50:59;89.43;;;53.85;;
69890;SDS011;57170;43.964;21.262;2023-02-28T12:58:45;117.07;;;72.57;;
69890;SDS011;57170;43.964;21.262;2023-02-28T13:03:56;97.22;;;53.00;;
69890;SDS011;57170;43.964;21.262;2023-02-28T13:09:08;99.32;;;53.13;;
69890;SDS011;57170;43.964;21.262;2023-02-28T13:11:50;108.53;;;63.05;;
69890;SDS011;57170;43.964;21.262;2023-02-28T13:14:28;118.90;;;71.40;;
69890;SDS011;57170;43.964;21.262;2023-02-28T13:19:39;86.78;;;51.47;;
69890;SDS011;57170;43.964;21.262;2023-02-28T13:22:15;75.97;;;50.38;;
69890;SDS011;57170;43.964;21.262;2023-02-28T13:24:54;92.35;;;50.75;;
69890;SDS011;57170;43.964;21.262;2023-02-28T13:27:22;82.38;;;49.25;;
69890;SDS011;57170;43.964;21.262;2023-02-28T13:29:49;76.78;;;48.55;;
69890;SDS011;57170;43.964;21.262;2023-02-28T13:32:34;89.13;;;52.47;;
69890;SDS011;57170;43.964;21.262;2023-02-28T13:37:41;83.90;;;51.20;;
69890;SDS011;57170;43.964;21.262;2023-02-28T13:42:53;91.88;;;52.63;;
69890;SDS011;57170;43.964;21.262;2023-02-28T13:45:21;79.45;;;49.15;;
69890;SDS011;57170;43.964;21.262;2023-02-28T13:48:29;99.30;;;56.78;;
69890;SDS011;57170;43.964;21.262;2023-02-28T13:50:37;86.68;;;52.05;;
69890;SDS011;57170;43.964;21.262;2023-02-28T13:53:17;76.53;;;46.08;;
69890;SDS011;57170;43.964;21.262;2023-02-28T14:06:07;82.50;;;47.17;;
69890;SDS011;57170;43.964;21.262;2023-02-28T14:11:04;75.50;;;45.30;;
69890;SDS011;57170;43.964;21.262;2023-02-28T14:13:39;79.75;;;48.35;;
69890;SDS011;57170;43.964;21.262;2023-02-28T14:16:10;83.60;;;53.85;;
69890;SDS011;57170;43.964;21.262;2023-02-28T14:18:37;87.95;;;51.15;;
69890;SDS011;57170;43.964;21.262;2023-02-28T14:21:14;86.07;;;52.00;;
69890;SDS011;57170;43.964;21.262;2023-02-28T14:31:29;82.93;;;51.00;;
69890;SDS011;57170;43.964;21.262;2023-02-28T14:34:22;92.93;;;57.72;;
69890;SDS011;57170;43.964;21.262;2023-02-28T14:36:50;89.43;;;54.17;;
69890;SDS011;57170;43.964;21.262;2023-02-28T14:39:20;87.25;;;52.53;;
69890;SDS011;57170;43.964;21.262;2023-02-28T14:41:47;95.43;;;60.92;;
69890;SDS011;57170;43.964;21.262;2023-02-28T14:44:23;100.10;;;65.88;;
69890;SDS011;57170;43.964;21.262;2023-02-28T14:46:52;88.68;;;54.40;;
69890;SDS011;57170;43.964;21.262;2023-02-28T14:54:29;114.18;;;74.10;;
69890;SDS011;57170;43.964;21.262;2023-02-28T14:56:55;98.47;;;65.05;;
69890;SDS011;57170;43.964;21.262;2023-02-28T14:59:29;87.53;;;54.90;;
69890;SDS011;57170;43.964;21.262;2023-02-28T15:04:41;100.18;;;63.72;;
69890;SDS011;57170;43.964;21.262;2023-02-28T15:07:08;84.43;;;52.20;;
69890;SDS011;57170;43.964;21.262;2023-02-28T15:09:34;86.28;;;50.10;;
69890;SDS011;57170;43.964;21.262;2023-02-28T15:12:00;94.93;;;61.25;;
69890;SDS011;57170;43.964;21.262;2023-02-28T15:14:27;100.43;;;60.00;;
69890;SDS011;57170;43.964;21.262;2023-02-28T15:16:58;105.28;;;65.35;;
69890;SDS011;57170;43.964;21.262;2023-02-28T15:19:32;120.50;;;71.32;;
69890;SDS011;57170;43.964;21.262;2023-02-28T15:22:11;124.15;;;74.65;;
69890;SDS011;57170;43.964;21.262;2023-02-28T15:24:46;102.85;;;63.03;;
69890;SDS011;57170;43.964;21.262;2023-02-28T15:27:15;85.40;;;55.90;;
69890;SDS011;57170;43.964;21.262;2023-02-28T15:29:44;114.68;;;70.88;;
69890;SDS011;57170;43.964;21.262;2023-02-28T15:34:54;97.55;;;60.90;;
69890;SDS011;57170;43.964;21.262;2023-02-28T15:39:53;112.38;;;69.05;;
69890;SDS011;57170;43.964;21.262;2023-02-28T15:42:21;93.85;;;60.88;;
69890;SDS011;57170;43.964;21.262;2023-02-28T15:44:47;98.40;;;61.15;;
69890;SDS011;57170;43.964;21.262;2023-02-28T15:47:20;103.97;;;68.30;;
69890;SDS011;57170;43.964;21.262;2023-02-28T15:49:47;105.15;;;67.15;;
69890;SDS011;57170;43.964;21.262;2023-02-28T15:52:16;86.25;;;52.28;;
69890;SDS011;57170;43.964;21.262;2023-02-28T15:54:43;86.57;;;51.97;;
69890;SDS011;57170;43.964;21.262;2023-02-28T15:57:18;91.90;;;54.70;;
69890;SDS011;57170;43.964;21.262;2023-02-28T15:59:52;79.90;;;48.28;;
69890;SDS011;57170;43.964;21.262;2023-02-28T16:02:20;80.30;;;47.15;;
69890;SDS011;57170;43.964;21.262;2023-02-28T16:04:57;85.15;;;51.65;;
69890;SDS011;57170;43.964;21.262;2023-02-28T16:07:23;81.55;;;49.92;;
69890;SDS011;57170;43.964;21.262;2023-02-28T16:09:50;90.63;;;59.60;;
69890;SDS011;57170;43.964;21.262;2023-02-28T16:12:16;96.45;;;58.95;;
69890;SDS011;57170;43.964;21.262;2023-02-28T16:14:42;80.68;;;48.72;;
69890;SDS011;57170;43.964;21.262;2023-02-28T16:17:20;69.72;;;43.00;;
69890;SDS011;57170;43.964;21.262;2023-02-28T16:19:47;73.22;;;44.97;;
69890;SDS011;57170;43.964;21.262;2023-02-28T16:22:13;75.57;;;47.90;;
69890;SDS011;57170;43.964;21.262;2023-02-28T16:24:39;90.95;;;54.25;;
69890;SDS011;57170;43.964;21.262;2023-02-28T16:27:05;94.60;;;57.97;;
69890;SDS011;57170;43.964;21.262;2023-02-28T16:29:33;105.25;;;67.78;;
69890;SDS011;57170;43.964;21.262;2023-02-28T16:32:00;70.03;;;40.65;;